createdAt,value
2024-03-28T00:05:49.993Z,3.9
2024-03-28T00:14:05.479Z,3.8
2024-03-28T00:22:21.013Z,3.7
2024-03-28T00:30:36.523Z,3.6
2024-03-28T00:38:52.059Z,3.6
2024-03-28T00:47:07.561Z,3.5
2024-03-28T00:55:23.184Z,3.5
2024-03-28T01:11:54.084Z,3.3
2024-03-28T01:20:09.583Z,3.3
2024-03-28T01:28:25.124Z,3.3
2024-03-28T01:36:40.575Z,3.3
2024-03-28T01:44:56.108Z,3.3
2024-03-28T01:53:11.591Z,3.3
2024-03-28T02:01:27.301Z,3.4
2024-03-28T02:09:42.642Z,3.5
2024-03-28T02:17:58.193Z,3.7
2024-03-28T02:26:13.670Z,3.8
2024-03-28T02:34:29.209Z,3.9
2024-03-28T02:42:44.744Z,4.1
2024-03-28T02:51:00.368Z,4.2
2024-03-28T02:59:15.864Z,4.5
2024-03-28T03:07:31.461Z,4.8
2024-03-28T03:15:46.991Z,4.8
2024-03-28T03:24:02.585Z,4.9
2024-03-28T03:32:18.080Z,5
2024-03-28T03:40:33.689Z,5.1
2024-03-28T03:57:04.893Z,5.2
2024-03-28T04:05:20.447Z,5.3
2024-03-28T04:14:12.114Z,5.2
2024-03-28T04:21:51.630Z,5.3
2024-03-28T04:30:07.246Z,5.4
2024-03-28T04:38:22.812Z,5.5
2024-03-28T04:46:38.390Z,5.5
2024-03-28T04:54:53.972Z,5.7
2024-03-28T05:03:09.554Z,5.6
2024-03-28T05:11:25.750Z,5.6
2024-03-28T05:19:40.911Z,5.7
2024-03-28T05:27:56.429Z,5.6
2024-03-28T05:44:27.569Z,5.6
2024-03-28T05:52:43.201Z,5.3
2024-03-28T06:00:58.756Z,5.4
2024-03-28T06:09:14.296Z,5.4
2024-03-28T06:17:29.933Z,5.4
2024-03-28T06:25:45.492Z,5.3
2024-03-28T06:34:01.075Z,5.4
2024-03-28T06:42:16.615Z,5.4
2024-03-28T06:50:32.202Z,5.4
2024-03-28T06:58:47.787Z,5.4
2024-03-28T07:07:03.366Z,5.4
2024-03-28T07:15:18.932Z,5.5
2024-03-28T07:23:34.541Z,5.6
2024-03-28T07:31:50.268Z,5.7
2024-03-28T07:40:05.755Z,5.9
2024-03-28T07:48:21.359Z,6.2
2024-03-28T07:56:36.947Z,6.6
2024-03-28T08:04:52.590Z,6.9
2024-03-28T08:13:08.221Z,7.1
2024-03-28T08:21:23.917Z,7.4
2024-03-28T08:29:39.571Z,7.9
2024-03-28T08:37:55.315Z,8.4
2024-03-28T08:46:10.999Z,8.8
2024-03-28T08:54:26.714Z,9.1
2024-03-28T09:02:42.506Z,9
2024-03-28T09:10:58.199Z,9.2
2024-03-28T09:19:13.975Z,9.6
2024-03-28T09:27:29.755Z,9.8
2024-03-28T09:35:45.535Z,9.9
2024-03-28T09:44:01.431Z,10
2024-03-28T09:52:17.125Z,10.1
2024-03-28T10:00:32.873Z,10.2
2024-03-28T10:08:48.682Z,10
2024-03-28T10:17:04.474Z,10.2
2024-03-28T10:25:20.266Z,10.3
2024-03-28T10:33:36.036Z,10.4
2024-03-28T10:41:51.866Z,10.7
2024-03-28T10:58:23.538Z,10.7
2024-03-28T11:06:39.306Z,10.8
2024-03-28T11:23:10.944Z,11
2024-03-28T11:31:26.766Z,10.9
2024-03-28T11:39:42.573Z,10.9
2024-03-28T11:47:58.428Z,10.8
2024-03-28T11:56:14.220Z,11.3
2024-03-28T12:04:30.174Z,11.3
2024-03-28T12:12:45.933Z,11.3
2024-03-28T12:21:01.774Z,11.3
2024-03-28T12:29:17.570Z,11.1
2024-03-28T12:37:33.413Z,11.4
2024-03-28T12:45:49.259Z,11.5
2024-03-28T12:54:05.097Z,11.4
2024-03-28T13:02:20.997Z,11.5
2024-03-28T13:10:37.032Z,11.7
2024-03-28T13:18:52.690Z,11.5
2024-03-28T13:27:22.250Z,11.6
2024-03-28T13:35:24.427Z,11.9
2024-03-28T13:43:40.326Z,12.3
2024-03-28T13:51:56.189Z,12.8
2024-03-28T14:00:12.087Z,13.6
2024-03-28T14:08:28.068Z,16.2
2024-03-28T14:16:44.263Z,18.2
2024-03-28T14:25:00.222Z,18.1
2024-03-28T14:33:16.331Z,18.9
2024-03-28T14:41:32.497Z,20.1
2024-03-28T14:49:48.634Z,19.4
2024-03-28T14:58:04.825Z,20.6
2024-03-28T15:06:21.004Z,20
2024-03-28T15:14:37.199Z,18.4
2024-03-28T15:22:53.455Z,18.1
2024-03-28T15:39:25.715Z,16.3
2024-03-28T15:47:41.706Z,15.9
2024-03-28T15:55:57.771Z,16.4
2024-03-28T16:04:16.538Z,16.8
2024-03-28T16:12:29.930Z,17.2
2024-03-28T16:20:46.033Z,17.5
2024-03-28T16:29:06.655Z,17.6
2024-03-28T16:37:18.228Z,18
2024-03-28T16:45:34.408Z,17.9
2024-03-28T16:53:50.490Z,17.9
2024-03-28T17:02:06.623Z,17.2
2024-03-28T17:10:22.658Z,17.1
2024-03-28T17:18:38.734Z,16.7
2024-03-28T17:26:54.771Z,16
2024-03-28T17:35:10.815Z,15.3
2024-03-28T17:43:26.699Z,14.4
2024-03-28T17:51:42.631Z,14
2024-03-28T17:59:58.540Z,13.4
2024-03-28T18:08:14.401Z,13.1
2024-03-28T18:16:30.280Z,12.9
2024-03-28T18:24:46.161Z,12.7
2024-03-28T18:33:02.039Z,12.5
2024-03-28T18:41:17.901Z,12.3
2024-03-28T18:49:33.663Z,12.2
2024-03-28T19:06:05.403Z,11.9
2024-03-28T19:14:21.183Z,11.8
2024-03-28T19:22:37.027Z,11.6
2024-03-28T19:30:52.785Z,11.5
2024-03-28T19:39:11.379Z,11.3
2024-03-28T19:47:24.421Z,11.1
2024-03-28T19:55:40.182Z,11
2024-03-28T20:03:55.925Z,10.9
2024-03-28T20:20:27.532Z,10.7
2024-03-28T20:28:43.281Z,10.7
2024-03-28T20:36:59.058Z,10.6
2024-03-28T20:45:14.849Z,10.6
2024-03-28T20:53:30.767Z,10.7
2024-03-28T21:01:46.402Z,10.8
2024-03-28T21:10:02.242Z,10.8
2024-03-28T21:18:17.983Z,10.8
2024-03-28T21:26:33.800Z,10.8
2024-03-28T21:34:49.582Z,10.8
2024-03-28T21:43:05.435Z,10.9
2024-03-28T21:51:21.177Z,10.8
2024-03-28T21:59:37.049Z,10.7
2024-03-28T22:07:52.776Z,10.5
2024-03-28T22:16:08.495Z,10.3
2024-03-28T22:24:24.265Z,10.1
2024-03-28T22:32:40.035Z,9.9
2024-03-28T22:40:55.786Z,9.8
2024-03-28T22:49:11.578Z,9.7
2024-03-28T22:57:27.284Z,9.6
2024-03-28T23:05:43.171Z,9.6
2024-03-28T23:13:58.805Z,9.7
2024-03-28T23:22:14.558Z,9.7
2024-03-28T23:30:30.251Z,9.6
2024-03-28T23:38:48.721Z,9.6
2024-03-28T23:47:01.774Z,9.5
2024-03-28T23:55:17.502Z,9.4
